Portada
METAR-TAF:

METAR-TAF

Aeroports :

Gaya, Índia

latitud: 24-44-40N, longitud: 84-57-04E, altitud: 116 m

Observació

L'informe es va fer fa 43 minuts, a les 19:00 UTC
Vent calma
Temperatura 24°C
Humitat 100%
Pressió 1014 hPa
Visibilitat: 2500 m
Escasses núvols a una alçada de 2000 ft
boirina

METAR: VEGY 161900Z 00000KT 2500 BR FEW020 24/24 Q1014

Hora: 01:13 (19:43 UTC)

Pronòstic

L'informe es va fer fa 5 hores i 43 minuts, a les 14:00 UTC
Pronòstic vàlid del 16 a les 15 UTC al 16 a les 24 UTC
Vent kt del Nord
Visibilitat: 3000 m
Escasses núvols a una alçada de 2000 ft
Núvols disperses a una alçada de 10000 ft
boirina, calitja
Evolucionant progressivament
l' 16 a les 19 UTC al 16 a les 21 UTC
Visibilitat: 2000 m
boirina, calitja

TAF: VEGY 161400Z 1615/1624 00000KT 3000 BR HZ FEW020 SCT100 BECMG 1619/1621 2000 BR HZ

Observacions i pronòstics meteorològics de més de 4000 aeroports (METAR i TAF).

Les estacions disponibles són els punts grocs i vermells al mapa.

Posi el ratolí al punt desitjat per veure el nom de l'estació.

Feu clic per veure les observacions i els pronòstics meteorològics.

Per canviar el mapa: feu clic els botons verds amb una creu de color negre per apropar; al botó verd amb un guió per allunyar la imatge; o en les fletxes verdes per a mapes adjacents.


METAR-TAF: